sensor_id;sensor_type;location;lat;lon;timestamp;P1;durP1;ratioP1;P2;durP2;ratioP2
52186;SDS011;38161;53.020;6.598;2023-06-14T00:00:58;10.48;;;8.85;;
52186;SDS011;38161;53.020;6.598;2023-06-14T00:03:24;11.10;;;10.10;;
52186;SDS011;38161;53.020;6.598;2023-06-14T00:05:51;9.85;;;9.13;;
52186;SDS011;38161;53.020;6.598;2023-06-14T00:08:16;10.95;;;10.05;;
52186;SDS011;38161;53.020;6.598;2023-06-14T00:10:44;10.88;;;9.82;;
52186;SDS011;38161;53.020;6.598;2023-06-14T00:15:36;8.20;;;7.47;;
52186;SDS011;38161;53.020;6.598;2023-06-14T00:18:02;9.40;;;8.57;;
52186;SDS011;38161;53.020;6.598;2023-06-14T00:20:30;9.23;;;8.32;;
52186;SDS011;38161;53.020;6.598;2023-06-14T00:23:00;10.73;;;9.90;;
52186;SDS011;38161;53.020;6.598;2023-06-14T00:25:26;10.90;;;9.48;;
52186;SDS011;38161;53.020;6.598;2023-06-14T00:30:19;8.38;;;7.72;;
52186;SDS011;38161;53.020;6.598;2023-06-14T00:32:45;9.88;;;8.80;;
52186;SDS011;38161;53.020;6.598;2023-06-14T00:35:12;9.30;;;8.50;;
52186;SDS011;38161;53.020;6.598;2023-06-14T00:37:38;9.85;;;9.05;;
52186;SDS011;38161;53.020;6.598;2023-06-14T00:40:04;9.85;;;9.05;;
52186;SDS011;38161;53.020;6.598;2023-06-14T00:42:31;9.60;;;8.05;;
52186;SDS011;38161;53.020;6.598;2023-06-14T00:44:58;8.18;;;7.57;;
52186;SDS011;38161;53.020;6.598;2023-06-14T00:47:24;10.82;;;8.68;;
52186;SDS011;38161;53.020;6.598;2023-06-14T00:49:50;8.80;;;8.02;;
52186;SDS011;38161;53.020;6.598;2023-06-14T00:54:42;7.60;;;7.00;;
52186;SDS011;38161;53.020;6.598;2023-06-14T00:57:09;9.35;;;8.55;;
52186;SDS011;38161;53.020;6.598;2023-06-14T00:59:43;8.48;;;7.68;;
52186;SDS011;38161;53.020;6.598;2023-06-14T01:02:10;12.15;;;8.55;;
52186;SDS011;38161;53.020;6.598;2023-06-14T01:04:37;8.73;;;8.02;;
52186;SDS011;38161;53.020;6.598;2023-06-14T01:15:11;8.52;;;7.82;;
52186;SDS011;38161;53.020;6.598;2023-06-14T01:17:38;9.10;;;8.25;;
52186;SDS011;38161;53.020;6.598;2023-06-14T01:20:09;9.40;;;8.70;;
52186;SDS011;38161;53.020;6.598;2023-06-14T01:22:50;9.23;;;8.32;;
52186;SDS011;38161;53.020;6.598;2023-06-14T01:25:18;8.70;;;7.80;;
52186;SDS011;38161;53.020;6.598;2023-06-14T01:28:06;9.45;;;8.15;;
52186;SDS011;38161;53.020;6.598;2023-06-14T01:30:40;8.65;;;7.85;;
52186;SDS011;38161;53.020;6.598;2023-06-14T01:33:15;9.35;;;8.25;;
52186;SDS011;38161;53.020;6.598;2023-06-14T01:35:44;9.80;;;8.82;;
52186;SDS011;38161;53.020;6.598;2023-06-14T01:38:14;9.20;;;8.35;;
52186;SDS011;38161;53.020;6.598;2023-06-14T01:40:42;9.50;;;8.60;;
52186;SDS011;38161;53.020;6.598;2023-06-14T01:43:10;8.88;;;8.07;;
52186;SDS011;38161;53.020;6.598;2023-06-14T01:45:38;8.55;;;7.78;;
52186;SDS011;38161;53.020;6.598;2023-06-14T01:48:18;10.05;;;9.25;;
52186;SDS011;38161;53.020;6.598;2023-06-14T01:50:45;8.35;;;7.68;;
52186;SDS011;38161;53.020;6.598;2023-06-14T01:53:10;9.18;;;8.38;;
52186;SDS011;38161;53.020;6.598;2023-06-14T01:55:36;9.43;;;8.63;;
52186;SDS011;38161;53.020;6.598;2023-06-14T01:58:03;8.85;;;8.02;;
52186;SDS011;38161;53.020;6.598;2023-06-14T02:00:29;9.68;;;8.88;;
52186;SDS011;38161;53.020;6.598;2023-06-14T02:02:55;10.63;;;9.55;;
52186;SDS011;38161;53.020;6.598;2023-06-14T02:05:21;8.57;;;7.85;;
52186;SDS011;38161;53.020;6.598;2023-06-14T02:07:47;8.88;;;8.07;;
52186;SDS011;38161;53.020;6.598;2023-06-14T02:10:13;9.02;;;8.23;;
52186;SDS011;38161;53.020;6.598;2023-06-14T02:12:40;8.82;;;8.05;;
52186;SDS011;38161;53.020;6.598;2023-06-14T02:15:06;9.73;;;8.07;;
52186;SDS011;38161;53.020;6.598;2023-06-14T02:17:33;11.68;;;7.97;;
52186;SDS011;38161;53.020;6.598;2023-06-14T02:22:25;8.63;;;7.47;;
52186;SDS011;38161;53.020;6.598;2023-06-14T02:24:51;8.57;;;7.95;;
52186;SDS011;38161;53.020;6.598;2023-06-14T02:27:18;8.38;;;7.78;;
52186;SDS011;38161;53.020;6.598;2023-06-14T02:29:46;10.13;;;8.23;;
52186;SDS011;38161;53.020;6.598;2023-06-14T02:32:15;8.25;;;7.57;;
52186;SDS011;38161;53.020;6.598;2023-06-14T02:34:41;10.55;;;8.38;;
52186;SDS011;38161;53.020;6.598;2023-06-14T02:37:07;13.93;;;9.63;;
52186;SDS011;38161;53.020;6.598;2023-06-14T02:39:33;11.35;;;10.25;;
52186;SDS011;38161;53.020;6.598;2023-06-14T02:41:59;10.00;;;9.00;;
52186;SDS011;38161;53.020;6.598;2023-06-14T02:44:25;8.38;;;7.68;;
52186;SDS011;38161;53.020;6.598;2023-06-14T02:46:54;10.30;;;9.40;;
52186;SDS011;38161;53.020;6.598;2023-06-14T02:49:23;9.75;;;8.95;;
52186;SDS011;38161;53.020;6.598;2023-06-14T02:51:49;9.63;;;8.65;;
52186;SDS011;38161;53.020;6.598;2023-06-14T02:54:15;10.32;;;9.38;;
52186;SDS011;38161;53.020;6.598;2023-06-14T02:56:41;8.77;;;7.80;;
52186;SDS011;38161;53.020;6.598;2023-06-14T02:59:07;10.55;;;9.75;;
52186;SDS011;38161;53.020;6.598;2023-06-14T03:01:34;11.77;;;10.88;;
52186;SDS011;38161;53.020;6.598;2023-06-14T03:04:03;10.70;;;9.75;;
52186;SDS011;38161;53.020;6.598;2023-06-14T03:06:29;10.70;;;9.88;;
52186;SDS011;38161;53.020;6.598;2023-06-14T03:08:56;12.80;;;11.80;;
52186;SDS011;38161;53.020;6.598;2023-06-14T03:11:25;13.73;;;12.52;;
52186;SDS011;38161;53.020;6.598;2023-06-14T03:13:54;11.82;;;10.82;;
52186;SDS011;38161;53.020;6.598;2023-06-14T03:16:21;10.80;;;10.02;;
52186;SDS011;38161;53.020;6.598;2023-06-14T03:18:49;12.90;;;11.80;;
52186;SDS011;38161;53.020;6.598;2023-06-14T03:21:16;10.90;;;9.95;;
52186;SDS011;38161;53.020;6.598;2023-06-14T03:23:42;12.18;;;11.23;;
52186;SDS011;38161;53.020;6.598;2023-06-14T03:26:09;12.50;;;11.65;;
52186;SDS011;38161;53.020;6.598;2023-06-14T03:28:38;14.98;;;9.75;;
52186;SDS011;38161;53.020;6.598;2023-06-14T03:31:03;10.63;;;9.77;;
52186;SDS011;38161;53.020;6.598;2023-06-14T03:33:29;12.27;;;11.38;;
52186;SDS011;38161;53.020;6.598;2023-06-14T03:35:55;11.23;;;10.23;;
52186;SDS011;38161;53.020;6.598;2023-06-14T03:38:21;11.00;;;9.90;;
52186;SDS011;38161;53.020;6.598;2023-06-14T03:40:47;11.40;;;10.38;;
52186;SDS011;38161;53.020;6.598;2023-06-14T03:43:13;11.30;;;10.40;;
52186;SDS011;38161;53.020;6.598;2023-06-14T03:45:39;12.15;;;10.63;;
52186;SDS011;38161;53.020;6.598;2023-06-14T03:48:05;15.00;;;10.15;;
52186;SDS011;38161;53.020;6.598;2023-06-14T03:50:33;14.02;;;13.02;;
52186;SDS011;38161;53.020;6.598;2023-06-14T03:52:59;12.68;;;11.48;;
52186;SDS011;38161;53.020;6.598;2023-06-14T03:55:26;13.70;;;12.45;;
52186;SDS011;38161;53.020;6.598;2023-06-14T03:57:52;11.65;;;10.80;;
52186;SDS011;38161;53.020;6.598;2023-06-14T04:00:18;12.80;;;11.80;;
52186;SDS011;38161;53.020;6.598;2023-06-14T04:05:10;6.15;;;5.55;;
52186;SDS011;38161;53.020;6.598;2023-06-14T04:07:36;9.52;;;6.15;;
52186;SDS011;38161;53.020;6.598;2023-06-14T04:10:10;6.70;;;6.03;;
52186;SDS011;38161;53.020;6.598;2023-06-14T04:12:37;14.18;;;7.75;;
52186;SDS011;38161;53.020;6.598;2023-06-14T04:15:03;9.57;;;6.75;;
52186;SDS011;38161;53.020;6.598;2023-06-14T04:17:31;8.98;;;7.13;;
52186;SDS011;38161;53.020;6.598;2023-06-14T04:19:58;7.70;;;5.93;;
52186;SDS011;38161;53.020;6.598;2023-06-14T04:22:25;8.07;;;6.90;;
52186;SDS011;38161;53.020;6.598;2023-06-14T04:24:56;5.80;;;5.15;;
52186;SDS011;38161;53.020;6.598;2023-06-14T04:27:22;7.15;;;6.10;;
52186;SDS011;38161;53.020;6.598;2023-06-14T04:29:51;7.18;;;5.90;;
52186;SDS011;38161;53.020;6.598;2023-06-14T04:32:28;9.23;;;6.22;;
52186;SDS011;38161;53.020;6.598;2023-06-14T04:35:07;8.77;;;6.00;;
52186;SDS011;38161;53.020;6.598;2023-06-14T04:37:34;9.80;;;5.75;;
52186;SDS011;38161;53.020;6.598;2023-06-14T04:40:00;6.85;;;5.78;;
52186;SDS011;38161;53.020;6.598;2023-06-14T04:42:26;8.02;;;5.95;;
52186;SDS011;38161;53.020;6.598;2023-06-14T04:44:55;10.77;;;9.88;;
52186;SDS011;38161;53.020;6.598;2023-06-14T04:47:21;8.88;;;7.53;;
52186;SDS011;38161;53.020;6.598;2023-06-14T04:49:50;11.35;;;7.55;;
52186;SDS011;38161;53.020;6.598;2023-06-14T04:52:18;8.18;;;7.38;;
52186;SDS011;38161;53.020;6.598;2023-06-14T04:54:46;8.80;;;5.60;;
52186;SDS011;38161;53.020;6.598;2023-06-14T04:59:39;9.17;;;6.20;;
52186;SDS011;38161;53.020;6.598;2023-06-14T05:02:06;7.47;;;6.43;;
52186;SDS011;38161;53.020;6.598;2023-06-14T05:04:33;8.20;;;5.95;;
52186;SDS011;38161;53.020;6.598;2023-06-14T05:06:59;7.82;;;6.10;;
52186;SDS011;38161;53.020;6.598;2023-06-14T05:09:28;9.20;;;7.32;;
52186;SDS011;38161;53.020;6.598;2023-06-14T05:11:54;8.13;;;7.28;;
52186;SDS011;38161;53.020;6.598;2023-06-14T05:14:21;8.00;;;6.82;;
52186;SDS011;38161;53.020;6.598;2023-06-14T05:16:47;7.80;;;6.57;;
52186;SDS011;38161;53.020;6.598;2023-06-14T05:19:13;9.88;;;8.88;;
52186;SDS011;38161;53.020;6.598;2023-06-14T05:21:39;13.15;;;7.82;;
52186;SDS011;38161;53.020;6.598;2023-06-14T05:24:05;11.07;;;7.55;;
52186;SDS011;38161;53.020;6.598;2023-06-14T05:26:31;8.43;;;7.60;;
52186;SDS011;38161;53.020;6.598;2023-06-14T05:28:58;10.25;;;7.35;;
52186;SDS011;38161;53.020;6.598;2023-06-14T05:31:26;7.50;;;6.55;;
52186;SDS011;38161;53.020;6.598;2023-06-14T05:33:53;8.52;;;7.28;;
52186;SDS011;38161;53.020;6.598;2023-06-14T05:36:19;8.48;;;7.68;;
52186;SDS011;38161;53.020;6.598;2023-06-14T05:38:48;9.45;;;8.55;;
52186;SDS011;38161;53.020;6.598;2023-06-14T05:41:15;8.20;;;7.50;;
52186;SDS011;38161;53.020;6.598;2023-06-14T05:43:41;9.43;;;8.48;;
52186;SDS011;38161;53.020;6.598;2023-06-14T05:46:07;9.73;;;8.00;;
52186;SDS011;38161;53.020;6.598;2023-06-14T05:48:33;10.93;;;8.93;;
52186;SDS011;38161;53.020;6.598;2023-06-14T05:50:59;10.57;;;9.63;;
52186;SDS011;38161;53.020;6.598;2023-06-14T05:53:25;12.32;;;8.90;;
52186;SDS011;38161;53.020;6.598;2023-06-14T05:55:51;10.40;;;9.48;;
52186;SDS011;38161;53.020;6.598;2023-06-14T05:58:18;11.38;;;10.27;;
52186;SDS011;38161;53.020;6.598;2023-06-14T06:00:45;10.43;;;9.43;;
52186;SDS011;38161;53.020;6.598;2023-06-14T06:03:11;11.40;;;9.32;;
52186;SDS011;38161;53.020;6.598;2023-06-14T06:05:38;10.88;;;9.85;;
52186;SDS011;38161;53.020;6.598;2023-06-14T06:08:04;11.65;;;10.52;;
52186;SDS011;38161;53.020;6.598;2023-06-14T06:10:31;18.02;;;10.35;;
52186;SDS011;38161;53.020;6.598;2023-06-14T06:12:57;13.98;;;12.75;;
52186;SDS011;38161;53.020;6.598;2023-06-14T06:15:23;12.63;;;11.60;;
52186;SDS011;38161;53.020;6.598;2023-06-14T06:17:48;12.88;;;9.90;;
52186;SDS011;38161;53.020;6.598;2023-06-14T06:20:16;13.20;;;12.13;;
52186;SDS011;38161;53.020;6.598;2023-06-14T06:25:08;11.70;;;8.68;;
52186;SDS011;38161;53.020;6.598;2023-06-14T06:27:34;20.02;;;11.95;;
52186;SDS011;38161;53.020;6.598;2023-06-14T06:30:03;13.63;;;12.02;;
52186;SDS011;38161;53.020;6.598;2023-06-14T06:34:55;10.00;;;8.98;;
52186;SDS011;38161;53.020;6.598;2023-06-14T06:37:20;11.48;;;9.82;;
52186;SDS011;38161;53.020;6.598;2023-06-14T06:39:46;13.07;;;12.05;;
52186;SDS011;38161;53.020;6.598;2023-06-14T06:42:12;13.07;;;11.95;;
52186;SDS011;38161;53.020;6.598;2023-06-14T06:44:38;10.90;;;10.00;;
52186;SDS011;38161;53.020;6.598;2023-06-14T06:47:04;13.57;;;11.88;;
52186;SDS011;38161;53.020;6.598;2023-06-14T06:49:30;22.80;;;12.10;;
52186;SDS011;38161;53.020;6.598;2023-06-14T06:52:03;12.43;;;11.55;;
52186;SDS011;38161;53.020;6.598;2023-06-14T06:54:30;13.38;;;12.32;;
52186;SDS011;38161;53.020;6.598;2023-06-14T06:56:57;14.65;;;12.55;;
52186;SDS011;38161;53.020;6.598;2023-06-14T06:59:24;16.85;;;15.48;;
52186;SDS011;38161;53.020;6.598;2023-06-14T07:04:19;12.15;;;11.05;;
52186;SDS011;38161;53.020;6.598;2023-06-14T07:06:45;11.05;;;10.18;;
52186;SDS011;38161;53.020;6.598;2023-06-14T07:09:12;14.20;;;13.00;;
52186;SDS011;38161;53.020;6.598;2023-06-14T07:11:39;15.52;;;14.48;;
52186;SDS011;38161;53.020;6.598;2023-06-14T07:14:05;14.93;;;12.25;;
52186;SDS011;38161;53.020;6.598;2023-06-14T07:16:31;18.95;;;17.75;;
52186;SDS011;38161;53.020;6.598;2023-06-14T07:18:57;15.50;;;14.43;;
52186;SDS011;38161;53.020;6.598;2023-06-14T07:21:23;15.07;;;14.07;;
52186;SDS011;38161;53.020;6.598;2023-06-14T07:23:51;16.35;;;15.18;;
52186;SDS011;38161;53.020;6.598;2023-06-14T07:26:20;14.95;;;13.90;;
52186;SDS011;38161;53.020;6.598;2023-06-14T07:31:15;12.65;;;11.65;;
52186;SDS011;38161;53.020;6.598;2023-06-14T07:33:41;13.30;;;12.20;;
52186;SDS011;38161;53.020;6.598;2023-06-14T07:36:07;16.30;;;15.25;;
52186;SDS011;38161;53.020;6.598;2023-06-14T07:38:33;19.95;;;18.50;;
52186;SDS011;38161;53.020;6.598;2023-06-14T07:40:59;14.65;;;13.45;;
52186;SDS011;38161;53.020;6.598;2023-06-14T07:43:26;18.27;;;16.88;;
52186;SDS011;38161;53.020;6.598;2023-06-14T07:45:51;19.38;;;18.17;;
52186;SDS011;38161;53.020;6.598;2023-06-14T07:48:18;19.75;;;18.33;;
52186;SDS011;38161;53.020;6.598;2023-06-14T07:50:44;19.30;;;17.95;;
52186;SDS011;38161;53.020;6.598;2023-06-14T07:53:10;19.85;;;18.50;;
52186;SDS011;38161;53.020;6.598;2023-06-14T07:55:35;18.95;;;17.48;;
52186;SDS011;38161;53.020;6.598;2023-06-14T07:58:05;43.20;;;21.70;;
52186;SDS011;38161;53.020;6.598;2023-06-14T08:00:32;21.48;;;19.85;;
52186;SDS011;38161;53.020;6.598;2023-06-14T08:02:57;21.23;;;19.73;;
52186;SDS011;38161;53.020;6.598;2023-06-14T08:05:24;21.58;;;20.05;;
52186;SDS011;38161;53.020;6.598;2023-06-14T08:07:54;20.83;;;19.52;;
52186;SDS011;38161;53.020;6.598;2023-06-14T08:10:20;23.20;;;21.73;;
52186;SDS011;38161;53.020;6.598;2023-06-14T08:12:46;20.63;;;19.23;;
52186;SDS011;38161;53.020;6.598;2023-06-14T08:15:15;23.77;;;22.27;;
52186;SDS011;38161;53.020;6.598;2023-06-14T08:17:42;24.60;;;23.05;;
52186;SDS011;38161;53.020;6.598;2023-06-14T08:20:09;28.80;;;25.52;;
52186;SDS011;38161;53.020;6.598;2023-06-14T08:22:35;27.67;;;25.27;;
52186;SDS011;38161;53.020;6.598;2023-06-14T08:25:02;22.33;;;20.85;;
52186;SDS011;38161;53.020;6.598;2023-06-14T08:27:29;25.40;;;23.25;;
52186;SDS011;38161;53.020;6.598;2023-06-14T08:29:55;21.85;;;20.35;;
52186;SDS011;38161;53.020;6.598;2023-06-14T08:32:22;24.27;;;22.67;;
52186;SDS011;38161;53.020;6.598;2023-06-14T08:37:13;20.38;;;18.70;;
52186;SDS011;38161;53.020;6.598;2023-06-14T08:39:39;30.02;;;28.13;;
52186;SDS011;38161;53.020;6.598;2023-06-14T08:42:05;25.58;;;23.80;;
52186;SDS011;38161;53.020;6.598;2023-06-14T08:44:34;29.73;;;27.70;;
52186;SDS011;38161;53.020;6.598;2023-06-14T08:47:00;26.95;;;25.25;;
52186;SDS011;38161;53.020;6.598;2023-06-14T08:49:26;23.98;;;22.30;;
52186;SDS011;38161;53.020;6.598;2023-06-14T08:51:56;26.58;;;24.90;;
52186;SDS011;38161;53.020;6.598;2023-06-14T08:54:25;25.05;;;23.35;;
52186;SDS011;38161;53.020;6.598;2023-06-14T08:57:01;26.85;;;25.15;;
52186;SDS011;38161;53.020;6.598;2023-06-14T08:59:29;32.53;;;30.55;;
52186;SDS011;38161;53.020;6.598;2023-06-14T09:01:59;29.73;;;27.90;;
52186;SDS011;38161;53.020;6.598;2023-06-14T09:06:54;23.88;;;22.45;;
52186;SDS011;38161;53.020;6.598;2023-06-14T09:09:21;28.52;;;26.73;;
52186;SDS011;38161;53.020;6.598;2023-06-14T09:11:51;36.67;;;33.83;;
52186;SDS011;38161;53.020;6.598;2023-06-14T09:14:18;28.48;;;26.77;;
52186;SDS011;38161;53.020;6.598;2023-06-14T09:16:46;30.75;;;28.90;;
52186;SDS011;38161;53.020;6.598;2023-06-14T09:19:21;35.03;;;32.80;;
52186;SDS011;38161;53.020;6.598;2023-06-14T09:21:49;28.58;;;26.77;;
52186;SDS011;38161;53.020;6.598;2023-06-14T09:24:18;66.03;;;38.03;;
52186;SDS011;38161;53.020;6.598;2023-06-14T09:26:46;31.02;;;29.30;;
52186;SDS011;38161;53.020;6.598;2023-06-14T09:29:13;32.83;;;30.70;;
52186;SDS011;38161;53.020;6.598;2023-06-14T09:31:39;34.70;;;32.45;;
52186;SDS011;38161;53.020;6.598;2023-06-14T09:34:05;39.03;;;36.38;;
52186;SDS011;38161;53.020;6.598;2023-06-14T09:36:31;30.83;;;28.92;;
52186;SDS011;38161;53.020;6.598;2023-06-14T09:38:58;35.42;;;33.10;;
52186;SDS011;38161;53.020;6.598;2023-06-14T09:41:33;36.72;;;34.30;;
52186;SDS011;38161;53.020;6.598;2023-06-14T09:44:07;30.65;;;28.70;;
52186;SDS011;38161;53.020;6.598;2023-06-14T09:46:34;41.90;;;39.28;;
52186;SDS011;38161;53.020;6.598;2023-06-14T09:49:01;38.65;;;36.17;;
52186;SDS011;38161;53.020;6.598;2023-06-14T09:51:28;39.13;;;36.85;;
52186;SDS011;38161;53.020;6.598;2023-06-14T09:53:58;39.70;;;37.35;;
52186;SDS011;38161;53.020;6.598;2023-06-14T09:56:37;43.67;;;40.03;;
52186;SDS011;38161;53.020;6.598;2023-06-14T10:01:35;28.45;;;26.17;;
52186;SDS011;38161;53.020;6.598;2023-06-14T10:04:06;33.35;;;31.33;;
52186;SDS011;38161;53.020;6.598;2023-06-14T10:06:35;33.17;;;30.98;;
52186;SDS011;38161;53.020;6.598;2023-06-14T10:09:03;35.35;;;33.08;;
52186;SDS011;38161;53.020;6.598;2023-06-14T10:11:32;40.83;;;38.45;;
52186;SDS011;38161;53.020;6.598;2023-06-14T10:14:01;40.65;;;33.50;;
52186;SDS011;38161;53.020;6.598;2023-06-14T10:19:18;50.88;;;37.08;;
52186;SDS011;38161;53.020;6.598;2023-06-14T10:24:40;34.38;;;32.40;;
52186;SDS011;38161;53.020;6.598;2023-06-14T10:27:09;47.75;;;44.97;;
52186;SDS011;38161;53.020;6.598;2023-06-14T10:32:22;61.78;;;42.08;;
52186;SDS011;38161;53.020;6.598;2023-06-14T10:35:05;49.35;;;43.95;;
52186;SDS011;38161;53.020;6.598;2023-06-14T10:37:32;38.67;;;36.25;;
52186;SDS011;38161;53.020;6.598;2023-06-14T10:42:50;36.53;;;34.28;;
52186;SDS011;38161;53.020;6.598;2023-06-14T10:45:18;45.90;;;43.15;;
52186;SDS011;38161;53.020;6.598;2023-06-14T10:47:45;37.90;;;35.67;;
52186;SDS011;38161;53.020;6.598;2023-06-14T10:50:19;44.67;;;41.85;;
52186;SDS011;38161;53.020;6.598;2023-06-14T10:52:58;35.53;;;33.10;;
52186;SDS011;38161;53.020;6.598;2023-06-14T10:55:27;44.85;;;42.25;;
52186;SDS011;38161;53.020;6.598;2023-06-14T10:57:59;48.40;;;44.08;;
52186;SDS011;38161;53.020;6.598;2023-06-14T11:00:27;40.85;;;37.72;;
52186;SDS011;38161;53.020;6.598;2023-06-14T11:05:56;48.30;;;44.70;;
52186;SDS011;38161;53.020;6.598;2023-06-14T11:11:06;43.47;;;40.78;;
52186;SDS011;38161;53.020;6.598;2023-06-14T11:13:42;34.40;;;32.45;;
52186;SDS011;38161;53.020;6.598;2023-06-14T11:16:14;31.77;;;29.80;;
52186;SDS011;38161;53.020;6.598;2023-06-14T11:18:41;41.92;;;39.47;;
52186;SDS011;38161;53.020;6.598;2023-06-14T11:21:07;72.47;;;49.03;;
52186;SDS011;38161;53.020;6.598;2023-06-14T11:23:36;56.30;;;45.95;;
52186;SDS011;38161;53.020;6.598;2023-06-14T11:26:05;36.95;;;34.78;;
52186;SDS011;38161;53.020;6.598;2023-06-14T11:31:06;42.05;;;39.58;;
52186;SDS011;38161;53.020;6.598;2023-06-14T11:33:33;46.75;;;43.30;;
52186;SDS011;38161;53.020;6.598;2023-06-14T11:36:03;41.60;;;38.33;;
52186;SDS011;38161;53.020;6.598;2023-06-14T11:38:36;127.25;;;48.83;;
52186;SDS011;38161;53.020;6.598;2023-06-14T11:41:02;41.83;;;39.35;;
52186;SDS011;38161;53.020;6.598;2023-06-14T11:43:28;38.60;;;36.03;;
52186;SDS011;38161;53.020;6.598;2023-06-14T11:45:56;42.97;;;40.45;;
52186;SDS011;38161;53.020;6.598;2023-06-14T11:48:22;41.28;;;38.78;;
52186;SDS011;38161;53.020;6.598;2023-06-14T11:50:49;46.35;;;42.67;;
52186;SDS011;38161;53.020;6.598;2023-06-14T11:53:16;38.28;;;35.90;;
52186;SDS011;38161;53.020;6.598;2023-06-14T11:55:43;42.60;;;39.60;;
52186;SDS011;38161;53.020;6.598;2023-06-14T11:58:11;41.72;;;39.10;;
52186;SDS011;38161;53.020;6.598;2023-06-14T12:03:03;36.85;;;34.45;;
52186;SDS011;38161;53.020;6.598;2023-06-14T12:05:28;47.13;;;43.03;;
52186;SDS011;38161;53.020;6.598;2023-06-14T12:07:58;52.85;;;45.35;;
52186;SDS011;38161;53.020;6.598;2023-06-14T12:10:25;44.60;;;40.60;;
52186;SDS011;38161;53.020;6.598;2023-06-14T12:12:56;37.50;;;35.25;;
52186;SDS011;38161;53.020;6.598;2023-06-14T12:15:23;39.38;;;37.00;;
52186;SDS011;38161;53.020;6.598;2023-06-14T12:17:49;133.77;;;49.95;;
52186;SDS011;38161;53.020;6.598;2023-06-14T12:20:15;51.65;;;47.13;;
52186;SDS011;38161;53.020;6.598;2023-06-14T12:23:03;42.03;;;34.58;;
52186;SDS011;38161;53.020;6.598;2023-06-14T12:25:32;34.00;;;30.95;;
52186;SDS011;38161;53.020;6.598;2023-06-14T12:28:04;70.75;;;43.83;;
52186;SDS011;38161;53.020;6.598;2023-06-14T12:30:34;41.40;;;38.67;;
52186;SDS011;38161;53.020;6.598;2023-06-14T12:33:01;44.05;;;41.53;;
52186;SDS011;38161;53.020;6.598;2023-06-14T12:35:28;40.45;;;38.10;;
52186;SDS011;38161;53.020;6.598;2023-06-14T12:37:53;50.17;;;38.63;;
52186;SDS011;38161;53.020;6.598;2023-06-14T12:42:46;40.17;;;37.00;;
52186;SDS011;38161;53.020;6.598;2023-06-14T12:45:14;38.13;;;35.58;;
52186;SDS011;38161;53.020;6.598;2023-06-14T12:47:41;41.22;;;38.78;;
52186;SDS011;38161;53.020;6.598;2023-06-14T12:50:07;44.30;;;41.70;;
52186;SDS011;38161;53.020;6.598;2023-06-14T12:52:33;35.92;;;33.95;;
52186;SDS011;38161;53.020;6.598;2023-06-14T12:55:01;45.58;;;41.47;;
52186;SDS011;38161;53.020;6.598;2023-06-14T12:57:29;39.75;;;37.45;;
52186;SDS011;38161;53.020;6.598;2023-06-14T13:02:20;39.03;;;36.85;;
52186;SDS011;38161;53.020;6.598;2023-06-14T13:04:48;34.05;;;32.00;;
52186;SDS011;38161;53.020;6.598;2023-06-14T13:09:40;29.50;;;27.02;;
52186;SDS011;38161;53.020;6.598;2023-06-14T13:12:07;39.13;;;36.88;;
52186;SDS011;38161;53.020;6.598;2023-06-14T13:14:33;38.38;;;36.28;;
52186;SDS011;38161;53.020;6.598;2023-06-14T13:19:25;34.40;;;32.13;;
52186;SDS011;38161;53.020;6.598;2023-06-14T13:24:17;34.43;;;32.53;;
52186;SDS011;38161;53.020;6.598;2023-06-14T13:29:09;38.95;;;36.72;;
52186;SDS011;38161;53.020;6.598;2023-06-14T13:31:35;35.72;;;33.53;;
52186;SDS011;38161;53.020;6.598;2023-06-14T13:36:27;36.38;;;34.00;;
52186;SDS011;38161;53.020;6.598;2023-06-14T13:41:20;36.90;;;34.85;;
52186;SDS011;38161;53.020;6.598;2023-06-14T13:46:11;33.72;;;31.35;;
52186;SDS011;38161;53.020;6.598;2023-06-14T13:51:03;36.10;;;32.95;;
52186;SDS011;38161;53.020;6.598;2023-06-14T13:55:56;43.55;;;39.92;;
52186;SDS011;38161;53.020;6.598;2023-06-14T13:58:22;40.03;;;37.80;;
52186;SDS011;38161;53.020;6.598;2023-06-14T14:00:49;40.20;;;37.90;;
52186;SDS011;38161;53.020;6.598;2023-06-14T14:05:40;39.08;;;36.50;;
52186;SDS011;38161;53.020;6.598;2023-06-14T14:10:32;30.90;;;29.00;;
52186;SDS011;38161;53.020;6.598;2023-06-14T14:15:24;33.63;;;31.60;;
52186;SDS011;38161;53.020;6.598;2023-06-14T14:20:16;45.75;;;40.08;;
52186;SDS011;38161;53.020;6.598;2023-06-14T14:25:08;29.75;;;27.92;;
52186;SDS011;38161;53.020;6.598;2023-06-14T14:27:35;37.75;;;35.50;;
52186;SDS011;38161;53.020;6.598;2023-06-14T14:30:02;34.90;;;32.58;;
52186;SDS011;38161;53.020;6.598;2023-06-14T14:32:29;37.80;;;35.58;;
52186;SDS011;38161;53.020;6.598;2023-06-14T14:37:20;35.78;;;33.63;;
52186;SDS011;38161;53.020;6.598;2023-06-14T14:42:12;34.08;;;32.25;;
52186;SDS011;38161;53.020;6.598;2023-06-14T14:44:38;37.67;;;35.45;;
52186;SDS011;38161;53.020;6.598;2023-06-14T14:47:04;45.92;;;41.10;;
52186;SDS011;38161;53.020;6.598;2023-06-14T14:49:31;39.58;;;35.50;;
52186;SDS011;38161;53.020;6.598;2023-06-14T14:51:57;60.97;;;40.88;;
52186;SDS011;38161;53.020;6.598;2023-06-14T14:59:16;32.13;;;30.08;;
52186;SDS011;38161;53.020;6.598;2023-06-14T15:01:42;32.30;;;30.38;;
52186;SDS011;38161;53.020;6.598;2023-06-14T15:06:34;32.42;;;30.50;;
52186;SDS011;38161;53.020;6.598;2023-06-14T15:09:01;33.08;;;31.27;;
52186;SDS011;38161;53.020;6.598;2023-06-14T15:13:52;31.00;;;29.35;;
52186;SDS011;38161;53.020;6.598;2023-06-14T15:18:44;52.88;;;48.58;;
52186;SDS011;38161;53.020;6.598;2023-06-14T15:23:37;34.20;;;31.93;;
52186;SDS011;38161;53.020;6.598;2023-06-14T15:26:03;31.40;;;29.52;;
52186;SDS011;38161;53.020;6.598;2023-06-14T15:28:29;45.28;;;42.13;;
52186;SDS011;38161;53.020;6.598;2023-06-14T15:33:20;43.88;;;35.03;;
52186;SDS011;38161;53.020;6.598;2023-06-14T15:35:47;31.20;;;29.30;;
52186;SDS011;38161;53.020;6.598;2023-06-14T15:40:38;36.15;;;33.95;;
52186;SDS011;38161;53.020;6.598;2023-06-14T15:45:30;30.02;;;27.30;;
52186;SDS011;38161;53.020;6.598;2023-06-14T15:47:56;28.80;;;27.05;;
52186;SDS011;38161;53.020;6.598;2023-06-14T15:50:22;32.83;;;30.90;;
52186;SDS011;38161;53.020;6.598;2023-06-14T15:52:48;32.50;;;30.38;;
52186;SDS011;38161;53.020;6.598;2023-06-14T15:57:40;33.10;;;31.23;;
52186;SDS011;38161;53.020;6.598;2023-06-14T16:00:06;31.85;;;29.65;;
52186;SDS011;38161;53.020;6.598;2023-06-14T16:02:33;35.70;;;32.55;;
52186;SDS011;38161;53.020;6.598;2023-06-14T16:04:58;33.25;;;31.23;;
52186;SDS011;38161;53.020;6.598;2023-06-14T16:09:50;28.33;;;26.60;;
52186;SDS011;38161;53.020;6.598;2023-06-14T16:14:41;25.10;;;23.55;;
52186;SDS011;38161;53.020;6.598;2023-06-14T16:17:07;30.58;;;28.80;;
52186;SDS011;38161;53.020;6.598;2023-06-14T16:19:33;27.88;;;26.27;;
52186;SDS011;38161;53.020;6.598;2023-06-14T16:24:25;31.63;;;29.77;;
52186;SDS011;38161;53.020;6.598;2023-06-14T16:29:19;25.50;;;23.92;;
52186;SDS011;38161;53.020;6.598;2023-06-14T16:31:45;33.00;;;31.02;;
52186;SDS011;38161;53.020;6.598;2023-06-14T16:36:37;27.05;;;25.50;;
52186;SDS011;38161;53.020;6.598;2023-06-14T16:39:03;32.25;;;30.00;;
52186;SDS011;38161;53.020;6.598;2023-06-14T16:43:55;29.92;;;27.92;;
52186;SDS011;38161;53.020;6.598;2023-06-14T16:48:53;27.27;;;25.58;;
52186;SDS011;38161;53.020;6.598;2023-06-14T16:51:19;28.27;;;26.55;;
52186;SDS011;38161;53.020;6.598;2023-06-14T16:56:11;25.48;;;23.90;;
52186;SDS011;38161;53.020;6.598;2023-06-14T17:01:02;25.48;;;23.98;;